createdAt,value
2023-05-14T00:00:25.217Z,94.17
2023-05-14T00:03:27.909Z,91.59
2023-05-14T00:06:30.060Z,93.31
2023-05-14T00:09:32.923Z,91.55
2023-05-14T00:12:34.858Z,92.72
2023-05-14T00:15:37.252Z,92.61
2023-05-14T00:18:39.483Z,92.76
2023-05-14T00:21:41.786Z,93.91
2023-05-14T00:24:43.766Z,91.71
2023-05-14T00:27:46.008Z,92.18
2023-05-14T00:30:47.988Z,92.15
2023-05-14T00:33:50.748Z,94.22
2023-05-14T00:36:52.816Z,95.16
2023-05-14T00:39:54.999Z,93.66
2023-05-14T00:42:56.993Z,96.20
2023-05-14T00:45:59.289Z,96.29
2023-05-14T00:49:01.426Z,94.76
2023-05-14T00:52:04.051Z,94.55
2023-05-14T00:55:06.533Z,95.21
2023-05-14T00:58:12.991Z,94.99
2023-05-14T01:01:15.359Z,93.31
2023-05-14T01:04:17.772Z,94.16
2023-05-14T01:07:25.678Z,94.00
2023-05-14T01:10:32.545Z,94.79
2023-05-14T01:13:40.088Z,94.65
2023-05-14T01:16:43.625Z,95.61
2023-05-14T01:19:47.255Z,93.97
2023-05-14T01:22:49.479Z,93.61
2023-05-14T01:25:51.529Z,95.24
2023-05-14T01:28:56.509Z,94.71
2023-05-14T01:32:00.997Z,96.96
2023-05-14T01:35:04.031Z,96.55
2023-05-14T01:38:07.494Z,97.60
2023-05-14T01:41:09.929Z,97.97
2023-05-14T01:44:12.199Z,98.29
2023-05-14T01:47:14.470Z,98.48
2023-05-14T01:50:16.731Z,99.10
2023-05-14T01:53:18.988Z,97.96
2023-05-14T01:56:23.401Z,97.59
2023-05-14T01:59:25.775Z,97.26
2023-05-14T02:02:27.752Z,97.74
2023-05-14T02:05:30.034Z,96.32
2023-05-14T02:08:32.035Z,98.12
2023-05-14T02:11:34.517Z,98.60
2023-05-14T02:14:36.815Z,97.57
2023-05-14T02:17:38.940Z,98.14
2023-05-14T02:20:41.271Z,96.80
2023-05-14T02:23:44.166Z,97.38
2023-05-14T02:26:46.505Z,97.19
2023-05-14T02:29:48.560Z,96.46
2023-05-14T02:32:50.949Z,96.97
2023-05-14T02:35:53.250Z,98.36
2023-05-14T02:38:55.537Z,97.82
2023-05-14T02:41:57.554Z,96.48
2023-05-14T02:44:59.921Z,96.21
2023-05-14T02:48:01.933Z,96.76
2023-05-14T02:51:05.705Z,96.19
2023-05-14T02:54:07.709Z,97.27
2023-05-14T02:57:09.990Z,97.19
2023-05-14T03:00:12.261Z,97.43
2023-05-14T03:03:15.221Z,97.79
2023-05-14T03:06:17.840Z,97.11
2023-05-14T03:09:20.172Z,96.96
2023-05-14T03:12:22.515Z,97.59
2023-05-14T03:15:24.920Z,97.51
2023-05-14T03:18:28.379Z,97.02
2023-05-14T03:21:31.309Z,97.51
2023-05-14T03:24:33.555Z,97.00
2023-05-14T03:27:36.163Z,96.26
2023-05-14T03:30:38.585Z,96.82
2023-05-14T03:33:41.195Z,95.70
2023-05-14T03:36:43.421Z,96.46
2023-05-14T03:39:45.726Z,95.39
2023-05-14T03:42:47.737Z,94.25
2023-05-14T03:45:52.543Z,93.51
2023-05-14T03:48:54.822Z,94.19
2023-05-14T03:51:59.365Z,94.50
2023-05-14T03:55:01.476Z,91.34
2023-05-14T03:58:05.856Z,93.81
2023-05-14T04:01:07.928Z,93.88
2023-05-14T04:04:10.583Z,92.46
2023-05-14T04:07:12.630Z,91.43
2023-05-14T04:10:15.463Z,91.45
2023-05-14T04:13:17.512Z,92.96
2023-05-14T04:16:20.181Z,92.54
2023-05-14T04:19:23.094Z,92.83
2023-05-14T04:22:25.404Z,91.25
2023-05-14T04:25:27.418Z,92.44
2023-05-14T04:28:29.689Z,91.69
2023-05-14T04:31:32.225Z,90.61
2023-05-14T04:34:34.590Z,91.40
2023-05-14T04:37:36.987Z,89.10
2023-05-14T04:40:39.236Z,90.66
2023-05-14T04:43:41.466Z,89.72
2023-05-14T04:46:43.714Z,89.89
2023-05-14T04:49:45.725Z,89.36
2023-05-14T04:52:47.980Z,87.95
2023-05-14T04:55:49.959Z,89.58
2023-05-14T04:58:52.249Z,89.08
2023-05-14T05:01:54.228Z,91.00
2023-05-14T05:04:56.456Z,88.01
2023-05-14T05:07:58.564Z,87.59
2023-05-14T05:11:00.824Z,88.56
2023-05-14T05:14:02.912Z,88.10
2023-05-14T05:17:05.158Z,92.27
2023-05-14T05:20:09.725Z,90.29
2023-05-14T05:23:11.936Z,89.10
2023-05-14T05:26:13.829Z,91.07
2023-05-14T05:29:19.037Z,89.95
2023-05-14T05:32:21.209Z,92.94
2023-05-14T05:35:23.505Z,92.95
2023-05-14T05:38:25.698Z,91.32
2023-05-14T05:41:27.985Z,89.02
2023-05-14T05:44:29.928Z,89.32
2023-05-14T05:47:32.202Z,89.01
2023-05-14T05:50:34.141Z,88.01
2023-05-14T05:53:36.548Z,87.46
2023-05-14T05:56:38.466Z,89.68
2023-05-14T05:59:40.691Z,89.49
2023-05-14T06:02:43.179Z,89.07
2023-05-14T06:05:46.818Z,91.59
2023-05-14T06:08:49.101Z,91.71
2023-05-14T06:11:51.373Z,90.33
2023-05-14T06:14:57.842Z,92.17
2023-05-14T06:18:00.085Z,93.40
2023-05-14T06:21:02.100Z,96.81
2023-05-14T06:24:04.570Z,93.30
2023-05-14T06:27:06.643Z,95.57
2023-05-14T06:30:09.181Z,93.22
2023-05-14T06:33:13.333Z,93.09
2023-05-14T06:36:15.655Z,97.73
2023-05-14T06:39:17.589Z,98.94
2023-05-14T06:42:19.849Z,98.96
2023-05-14T06:45:22.491Z,98.66
2023-05-14T06:48:27.635Z,97.46
2023-05-14T06:51:29.810Z,100.00
2023-05-14T06:54:32.085Z,98.56
2023-05-14T06:57:34.598Z,98.81
2023-05-14T07:00:36.823Z,96.24
2023-05-14T07:03:39.065Z,100.00
2023-05-14T07:06:41.370Z,99.64
2023-05-14T07:09:43.337Z,96.00
2023-05-14T07:12:45.778Z,98.09
2023-05-14T07:15:47.656Z,94.81
2023-05-14T07:18:49.926Z,95.12
2023-05-14T07:21:51.903Z,95.55
2023-05-14T07:24:54.214Z,92.12
2023-05-14T07:27:56.253Z,91.80
2023-05-14T07:30:58.530Z,90.96
2023-05-14T07:34:00.719Z,91.43
2023-05-14T07:37:03.506Z,94.03
2023-05-14T07:40:05.705Z,93.37
2023-05-14T07:43:07.943Z,87.61
2023-05-14T07:46:09.961Z,88.11
2023-05-14T07:49:12.222Z,88.88
2023-05-14T07:52:14.152Z,85.96
2023-05-14T07:55:16.970Z,86.25
2023-05-14T07:58:18.952Z,87.38
2023-05-14T08:01:21.180Z,87.57
2023-05-14T08:04:23.487Z,89.24
2023-05-14T08:07:27.319Z,85.96
2023-05-14T08:10:29.661Z,90.24
2023-05-14T08:13:32.044Z,91.35
2023-05-14T08:16:34.463Z,90.67
2023-05-14T08:19:36.467Z,87.36
2023-05-14T08:22:38.711Z,91.80
2023-05-14T08:25:40.701Z,89.71
2023-05-14T08:28:42.931Z,92.08
2023-05-14T08:31:44.868Z,91.44
2023-05-14T08:34:47.122Z,91.27
2023-05-14T08:37:50.175Z,94.83
2023-05-14T08:40:59.070Z,95.09
2023-05-14T08:44:06.952Z,93.90
2023-05-14T08:47:10.377Z,96.39
2023-05-14T08:50:12.572Z,95.57
2023-05-14T08:53:14.935Z,96.59
2023-05-14T08:56:18.180Z,92.20
2023-05-14T08:59:20.636Z,93.37
2023-05-14T09:02:28.643Z,92.83
2023-05-14T09:05:30.879Z,93.65
2023-05-14T09:08:33.302Z,93.35
2023-05-14T09:11:40.806Z,95.23
2023-05-14T09:14:43.898Z,95.34
2023-05-14T09:17:47.953Z,100.00
2023-05-14T09:20:52.014Z,99.76
2023-05-14T09:23:56.848Z,99.78
2023-05-14T09:26:58.787Z,99.36
2023-05-14T09:30:05.086Z,100.00
2023-05-14T09:33:10.222Z,100.00
2023-05-14T09:36:12.658Z,100.00
2023-05-14T09:39:14.611Z,100.00
2023-05-14T09:42:16.965Z,97.74
2023-05-14T09:45:19.108Z,99.13
2023-05-14T09:48:22.413Z,100.00
2023-05-14T09:51:24.469Z,98.47
2023-05-14T09:54:27.321Z,100.00
2023-05-14T09:57:29.303Z,100.00
2023-05-14T10:00:32.551Z,100.00
2023-05-14T10:03:35.155Z,99.47
2023-05-14T10:06:38.079Z,99.70
2023-05-14T10:09:41.580Z,100.00
2023-05-14T10:12:46.192Z,100.00
2023-05-14T10:15:49.403Z,100.00
2023-05-14T10:18:57.054Z,100.00
2023-05-14T10:22:11.472Z,100.00
2023-05-14T10:25:13.570Z,100.00
2023-05-14T10:28:16.105Z,100.00
2023-05-14T10:31:18.085Z,100.00
2023-05-14T10:34:44.023Z,100.00
2023-05-14T10:37:46.891Z,100.00
2023-05-14T10:40:50.317Z,96.98
2023-05-14T10:43:53.662Z,100.00
2023-05-14T10:46:56.302Z,100.00
2023-05-14T10:49:59.425Z,100.00
2023-05-14T10:53:02.519Z,100.00
2023-05-14T10:56:08.894Z,100.00
2023-05-14T10:59:11.881Z,100.00
2023-05-14T11:02:24.640Z,100.00
2023-05-14T11:05:27.751Z,100.00
2023-05-14T11:08:30.979Z,100.00
2023-05-14T11:11:33.284Z,100.00
2023-05-14T11:14:35.261Z,99.87
2023-05-14T11:17:38.348Z,100.00
2023-05-14T11:20:40.517Z,100.00
2023-05-14T11:23:46.193Z,100.00
2023-05-14T11:26:48.185Z,100.00
2023-05-14T11:29:50.845Z,100.00
2023-05-14T11:32:54.160Z,100.00
2023-05-14T11:35:56.481Z,100.00
2023-05-14T11:38:58.500Z,100.00
2023-05-14T11:42:03.247Z,100.00
2023-05-14T11:45:05.940Z,100.00
2023-05-14T11:48:17.971Z,100.00
2023-05-14T11:51:21.052Z,100.00
2023-05-14T11:54:25.060Z,100.00
2023-05-14T11:57:27.045Z,100.00
2023-05-14T12:00:29.860Z,100.00
2023-05-14T12:03:32.237Z,100.00
2023-05-14T12:06:34.374Z,100.00
2023-05-14T12:09:38.826Z,100.00
2023-05-14T12:12:40.829Z,100.00
2023-05-14T12:15:47.064Z,100.00
2023-05-14T12:18:49.144Z,100.00
2023-05-14T12:21:51.480Z,100.00
2023-05-14T12:24:57.258Z,100.00
2023-05-14T12:27:59.528Z,100.00
2023-05-14T12:31:01.517Z,100.00
2023-05-14T12:34:04.252Z,100.00
2023-05-14T12:37:06.813Z,100.00
2023-05-14T12:40:12.589Z,100.00
2023-05-14T12:43:14.766Z,100.00
2023-05-14T12:46:17.211Z,100.00
2023-05-14T12:49:19.648Z,100.00
2023-05-14T12:52:33.330Z,100.00
2023-05-14T12:55:39.235Z,100.00
2023-05-14T12:58:41.493Z,100.00
2023-05-14T13:01:43.833Z,100.00
2023-05-14T13:04:46.093Z,100.00
2023-05-14T13:07:48.055Z,100.00
2023-05-14T13:10:50.894Z,100.00
2023-05-14T13:13:52.825Z,100.00
2023-05-14T13:16:55.928Z,100.00
2023-05-14T13:19:58.092Z,100.00
2023-05-14T13:23:00.408Z,100.00
2023-05-14T13:26:02.375Z,100.00
2023-05-14T13:29:06.879Z,100.00
2023-05-14T13:32:08.966Z,100.00
2023-05-14T13:35:11.666Z,100.00
2023-05-14T13:38:13.799Z,100.00
2023-05-14T13:41:16.055Z,100.00
2023-05-14T13:44:17.975Z,100.00
2023-05-14T13:47:20.263Z,100.00
2023-05-14T13:50:22.251Z,100.00
2023-05-14T13:53:25.031Z,100.00
2023-05-14T13:56:27.018Z,100.00
2023-05-14T13:59:29.375Z,100.00
2023-05-14T14:02:32.251Z,100.00
2023-05-14T14:05:36.213Z,100.00
2023-05-14T14:08:38.318Z,100.00
2023-05-14T14:11:41.037Z,100.00
2023-05-14T14:14:43.007Z,100.00
2023-05-14T14:17:45.394Z,100.00
2023-05-14T14:20:47.530Z,100.00
2023-05-14T14:23:49.790Z,100.00
2023-05-14T14:26:51.712Z,100.00
2023-05-14T14:29:53.978Z,100.00
2023-05-14T14:32:56.100Z,100.00
2023-05-14T14:35:58.406Z,100.00
2023-05-14T14:39:00.570Z,100.00
2023-05-14T14:42:05.132Z,100.00
2023-05-14T14:45:07.337Z,100.00
2023-05-14T14:48:22.673Z,100.00
2023-05-14T14:51:24.671Z,100.00
2023-05-14T14:54:26.908Z,100.00
2023-05-14T14:57:28.941Z,100.00
2023-05-14T15:00:31.223Z,100.00
2023-05-14T15:03:33.414Z,100.00
2023-05-14T15:06:35.815Z,100.00
2023-05-14T15:09:37.818Z,100.00
2023-05-14T15:12:40.233Z,100.00
2023-05-14T15:15:42.377Z,100.00
2023-05-14T15:18:44.641Z,100.00
2023-05-14T15:21:46.610Z,100.00
2023-05-14T15:24:48.867Z,100.00
2023-05-14T15:27:50.797Z,100.00
2023-05-14T15:30:53.156Z,100.00
2023-05-14T15:33:56.008Z,100.00
2023-05-14T15:36:58.307Z,100.00
2023-05-14T15:40:00.291Z,100.00
2023-05-14T15:43:02.505Z,100.00
2023-05-14T15:46:04.541Z,100.00
2023-05-14T15:49:06.843Z,100.00
2023-05-14T15:52:08.797Z,100.00
2023-05-14T15:55:11.072Z,100.00
2023-05-14T15:58:13.014Z,100.00
2023-05-14T16:01:15.411Z,100.00
2023-05-14T16:04:17.634Z,100.00
2023-05-14T16:07:19.786Z,100.00
2023-05-14T16:10:22.463Z,100.00
2023-05-14T16:13:24.572Z,100.00
2023-05-14T16:16:26.858Z,100.00
2023-05-14T16:19:29.111Z,100.00
2023-05-14T16:22:32.752Z,100.00
2023-05-14T16:25:35.111Z,100.00
2023-05-14T16:28:41.175Z,100.00
2023-05-14T16:31:43.416Z,100.00
2023-05-14T16:34:49.678Z,100.00
2023-05-14T16:37:51.780Z,100.00
2023-05-14T16:40:54.125Z,100.00
2023-05-14T16:43:56.144Z,100.00
2023-05-14T16:46:58.423Z,100.00
2023-05-14T16:50:00.467Z,100.00
2023-05-14T16:53:02.770Z,100.00
2023-05-14T16:56:04.941Z,100.00
2023-05-14T16:59:07.555Z,100.00
2023-05-14T17:02:10.043Z,100.00
2023-05-14T17:05:12.339Z,100.00
2023-05-14T17:08:14.581Z,100.00
2023-05-14T17:11:16.957Z,100.00
2023-05-14T17:14:19.243Z,100.00
2023-05-14T17:17:21.486Z,100.00
2023-05-14T17:20:23.512Z,100.00
2023-05-14T17:23:25.938Z,100.00
2023-05-14T17:26:28.272Z,100.00
2023-05-14T17:29:30.607Z,100.00
2023-05-14T17:32:32.651Z,100.00
2023-05-14T17:35:36.344Z,100.00
2023-05-14T17:38:39.441Z,100.00
2023-05-14T17:41:44.652Z,100.00
2023-05-14T17:44:46.653Z,100.00
2023-05-14T17:47:49.148Z,100.00
2023-05-14T17:50:54.052Z,100.00
2023-05-14T17:53:56.362Z,100.00
2023-05-14T17:56:58.553Z,100.00
2023-05-14T18:00:00.839Z,100.00
2023-05-14T18:03:02.854Z,100.00
2023-05-14T18:06:05.343Z,100.00
2023-05-14T18:09:07.563Z,100.00
2023-05-14T18:12:09.953Z,100.00
2023-05-14T18:15:11.882Z,100.00
2023-05-14T18:18:17.086Z,100.00
2023-05-14T18:21:19.089Z,100.00
2023-05-14T18:24:22.238Z,100.00
2023-05-14T18:27:24.300Z,100.00
2023-05-14T18:30:26.546Z,100.00
2023-05-14T18:33:28.506Z,100.00
2023-05-14T18:36:30.849Z,100.00
2023-05-14T18:39:32.831Z,100.00
2023-05-14T18:42:35.176Z,100.00
2023-05-14T18:45:37.139Z,100.00
2023-05-14T18:48:39.414Z,100.00
2023-05-14T18:51:41.422Z,100.00
2023-05-14T18:54:43.691Z,100.00
2023-05-14T18:57:45.984Z,100.00
2023-05-14T19:00:48.363Z,100.00
2023-05-14T19:03:50.436Z,100.00
2023-05-14T19:06:53.062Z,100.00
2023-05-14T19:09:55.028Z,100.00
2023-05-14T19:12:57.643Z,100.00
2023-05-14T19:16:00.115Z,100.00
2023-05-14T19:19:02.570Z,100.00
2023-05-14T19:22:04.686Z,100.00
2023-05-14T19:25:08.157Z,100.00
2023-05-14T19:28:10.733Z,100.00
2023-05-14T19:31:13.040Z,100.00
2023-05-14T19:34:15.033Z,100.00
2023-05-14T19:37:17.349Z,100.00
2023-05-14T19:40:19.356Z,100.00
2023-05-14T19:43:21.606Z,100.00
2023-05-14T19:46:23.548Z,100.00
2023-05-14T19:49:25.768Z,100.00
2023-05-14T19:52:27.713Z,100.00
2023-05-14T19:55:30.453Z,100.00
2023-05-14T19:58:32.394Z,100.00
2023-05-14T20:01:34.844Z,100.00
2023-05-14T20:04:40.007Z,100.00
2023-05-14T20:07:42.585Z,100.00
2023-05-14T20:10:45.157Z,100.00
2023-05-14T20:13:47.470Z,100.00
2023-05-14T20:16:49.838Z,100.00
2023-05-14T20:19:52.235Z,100.00
2023-05-14T20:22:54.529Z,100.00
2023-05-14T20:25:56.581Z,100.00
2023-05-14T20:28:58.838Z,100.00
2023-05-14T20:32:00.952Z,100.00
2023-05-14T20:35:03.313Z,100.00
2023-05-14T20:38:05.323Z,100.00
2023-05-14T20:41:07.950Z,100.00
2023-05-14T20:44:09.881Z,100.00
2023-05-14T20:47:16.263Z,100.00
2023-05-14T20:50:18.307Z,100.00
2023-05-14T20:53:20.957Z,100.00
2023-05-14T20:56:23.102Z,100.00
2023-05-14T20:59:25.436Z,100.00
2023-05-14T21:02:27.862Z,100.00
2023-05-14T21:05:30.267Z,100.00
2023-05-14T21:08:35.790Z,100.00
2023-05-14T21:11:38.068Z,100.00
2023-05-14T21:14:40.197Z,100.00
2023-05-14T21:17:42.596Z,100.00
2023-05-14T21:20:44.605Z,100.00
2023-05-14T21:23:46.945Z,100.00
2023-05-14T21:26:48.947Z,100.00
2023-05-14T21:29:51.249Z,100.00
2023-05-14T21:32:53.224Z,100.00
2023-05-14T21:35:55.608Z,100.00
2023-05-14T21:38:57.649Z,100.00
2023-05-14T21:42:00.009Z,100.00
2023-05-14T21:45:02.193Z,100.00
2023-05-14T21:48:04.764Z,100.00
2023-05-14T21:51:07.130Z,100.00
2023-05-14T21:54:09.716Z,100.00
2023-05-14T21:57:11.720Z,100.00
2023-05-14T22:00:18.487Z,100.00
2023-05-14T22:03:21.007Z,100.00
2023-05-14T22:06:23.170Z,100.00
2023-05-14T22:09:25.819Z,100.00
2023-05-14T22:12:27.855Z,100.00
2023-05-14T22:15:30.129Z,100.00
2023-05-14T22:18:32.399Z,100.00
2023-05-14T22:21:34.672Z,100.00
2023-05-14T22:24:39.673Z,100.00
2023-05-14T22:27:41.924Z,100.00
2023-05-14T22:30:43.832Z,100.00
2023-05-14T22:33:46.248Z,100.00
2023-05-14T22:36:48.227Z,100.00
2023-05-14T22:39:50.508Z,100.00
2023-05-14T22:42:52.570Z,100.00
2023-05-14T22:45:54.897Z,100.00
2023-05-14T22:48:56.936Z,100.00
2023-05-14T22:51:59.336Z,100.00
2023-05-14T22:55:01.238Z,100.00
2023-05-14T22:58:03.940Z,100.00
2023-05-14T23:01:05.953Z,100.00
2023-05-14T23:04:08.242Z,100.00
2023-05-14T23:07:10.613Z,100.00
2023-05-14T23:10:15.986Z,100.00
2023-05-14T23:13:19.088Z,100.00
2023-05-14T23:16:21.339Z,100.00
2023-05-14T23:19:23.494Z,100.00
2023-05-14T23:22:25.767Z,100.00
2023-05-14T23:25:28.016Z,100.00
2023-05-14T23:28:30.605Z,100.00
2023-05-14T23:31:32.719Z,100.00
2023-05-14T23:34:34.975Z,100.00
2023-05-14T23:37:41.625Z,100.00
2023-05-14T23:40:43.956Z,100.00
2023-05-14T23:43:45.937Z,100.00
2023-05-14T23:46:48.355Z,100.00
2023-05-14T23:49:50.364Z,100.00
2023-05-14T23:52:53.139Z,100.00
2023-05-14T23:55:55.123Z,100.00
2023-05-14T23:58:57.503Z,100.00
